createdAt,value
2017-02-07T00:00:32.462Z,0
2017-02-07T00:01:32.451Z,0
2017-02-07T00:02:32.430Z,0
2017-02-07T00:03:32.417Z,0
2017-02-07T00:04:32.401Z,0
2017-02-07T00:05:32.383Z,0
2017-02-07T00:06:32.382Z,0
2017-02-07T00:07:32.353Z,0
2017-02-07T00:08:32.348Z,0
2017-02-07T00:09:32.328Z,0
2017-02-07T00:10:32.308Z,0
2017-02-07T00:11:32.294Z,0
2017-02-07T00:12:31.505Z,0
2017-02-07T00:13:31.878Z,0
2017-02-07T00:14:32.255Z,0
2017-02-07T00:15:32.240Z,0
2017-02-07T00:16:31.836Z,0
2017-02-07T00:17:31.814Z,0
2017-02-07T00:18:32.187Z,0
2017-02-07T00:19:32.170Z,0
2017-02-07T00:20:32.160Z,0
2017-02-07T00:21:32.165Z,0
2017-02-07T00:22:32.130Z,0
2017-02-07T00:23:32.111Z,0
2017-02-07T00:24:32.099Z,0
2017-02-07T00:25:32.081Z,0
2017-02-07T00:26:32.064Z,0
2017-02-07T00:27:31.696Z,0
2017-02-07T00:28:32.038Z,0
2017-02-07T00:29:32.018Z,0
2017-02-07T00:30:32.004Z,0
2017-02-07T00:31:31.989Z,0
2017-02-07T00:32:31.974Z,0
2017-02-07T00:33:31.961Z,0
2017-02-07T00:34:31.947Z,0
2017-02-07T00:35:31.938Z,0
2017-02-07T00:36:31.913Z,0
2017-02-07T00:37:31.515Z,0
2017-02-07T00:38:31.885Z,0
2017-02-07T00:39:31.868Z,0
2017-02-07T00:40:31.853Z,0
2017-02-07T00:41:31.457Z,0
2017-02-07T00:42:31.832Z,0
2017-02-07T00:43:31.809Z,0
2017-02-07T00:44:31.799Z,0
2017-02-07T00:45:31.391Z,0
2017-02-07T00:46:31.761Z,0
2017-02-07T00:47:31.747Z,0
2017-02-07T00:48:31.728Z,0
2017-02-07T00:49:31.333Z,0
2017-02-07T00:50:31.705Z,0
2017-02-07T00:51:31.688Z,0
2017-02-07T00:52:31.676Z,0
2017-02-07T00:53:31.271Z,0
2017-02-07T00:54:31.645Z,0
2017-02-07T00:55:31.622Z,0
2017-02-07T00:56:31.616Z,0
2017-02-07T00:57:31.597Z,0
2017-02-07T00:58:31.583Z,0
2017-02-07T00:59:31.566Z,0
2017-02-07T01:00:31.551Z,0
2017-02-07T01:01:31.536Z,0
2017-02-07T01:02:31.528Z,0
2017-02-07T01:03:31.507Z,0
2017-02-07T01:04:31.494Z,0
2017-02-07T01:05:31.472Z,0
2017-02-07T01:06:31.462Z,0
2017-02-07T01:07:31.446Z,0
2017-02-07T01:08:31.427Z,0
2017-02-07T01:09:31.419Z,0
2017-02-07T01:10:31.409Z,0
2017-02-07T01:11:31.385Z,0
2017-02-07T01:12:31.411Z,0
2017-02-07T01:13:31.391Z,0
2017-02-07T01:14:31.338Z,0
2017-02-07T01:15:31.329Z,0
2017-02-07T01:16:31.310Z,0
2017-02-07T01:17:31.299Z,0
2017-02-07T01:18:31.282Z,0
2017-02-07T01:19:31.262Z,0
2017-02-07T01:20:31.247Z,0
2017-02-07T01:21:31.237Z,0
2017-02-07T01:22:31.219Z,0
2017-02-07T01:23:31.205Z,0
2017-02-07T01:24:31.190Z,0
2017-02-07T01:25:30.786Z,0
2017-02-07T01:26:31.156Z,0
2017-02-07T01:27:31.143Z,0
2017-02-07T01:28:31.122Z,0
2017-02-07T01:29:31.112Z,0
2017-02-07T01:30:31.100Z,0
2017-02-07T01:31:31.086Z,0
2017-02-07T01:32:31.071Z,0
2017-02-07T01:33:31.054Z,0
2017-02-07T01:34:31.034Z,0
2017-02-07T01:35:31.027Z,0
2017-02-07T01:36:31.003Z,0
2017-02-07T01:37:30.990Z,0
2017-02-07T01:38:30.981Z,0
2017-02-07T01:39:30.965Z,0
2017-02-07T01:40:30.948Z,0
2017-02-07T01:41:30.926Z,0
2017-02-07T01:42:30.910Z,0
2017-02-07T01:43:30.899Z,0
2017-02-07T01:44:30.882Z,0
2017-02-07T01:45:30.876Z,0
2017-02-07T01:46:30.880Z,0
2017-02-07T01:47:30.845Z,0
2017-02-07T01:48:30.821Z,0
2017-02-07T01:49:30.808Z,0
2017-02-07T01:50:30.789Z,0
2017-02-07T01:51:30.781Z,0
2017-02-07T01:52:30.764Z,0
2017-02-07T01:53:30.746Z,0
2017-02-07T01:54:30.731Z,0
2017-02-07T01:55:30.719Z,0
2017-02-07T01:56:30.707Z,0
2017-02-07T01:57:30.688Z,0
2017-02-07T01:58:30.673Z,0
2017-02-07T01:59:30.655Z,0
2017-02-07T02:00:30.644Z,0
2017-02-07T02:01:30.625Z,0
2017-02-07T02:02:30.608Z,0
2017-02-07T02:03:30.599Z,0
2017-02-07T02:04:30.579Z,0
2017-02-07T02:05:30.571Z,0
2017-02-07T02:06:30.555Z,0
2017-02-07T02:07:30.538Z,0
2017-02-07T02:08:30.528Z,0
2017-02-07T02:09:30.748Z,0
2017-02-07T02:10:30.481Z,0
2017-02-07T02:11:30.472Z,0
2017-02-07T02:12:30.455Z,0
2017-02-07T02:13:30.443Z,0
2017-02-07T02:14:30.432Z,0
2017-02-07T02:15:30.410Z,0
2017-02-07T02:16:30.392Z,0
2017-02-07T02:17:30.381Z,0
2017-02-07T02:18:30.363Z,0
2017-02-07T02:19:30.347Z,0
2017-02-07T02:20:29.955Z,0
2017-02-07T02:21:29.936Z,0
2017-02-07T02:22:29.916Z,0
2017-02-07T02:23:30.288Z,0
2017-02-07T02:24:30.275Z,0
2017-02-07T02:25:30.255Z,0
2017-02-07T02:26:30.246Z,0
2017-02-07T02:27:30.225Z,0
2017-02-07T02:28:30.216Z,0
2017-02-07T02:29:30.232Z,0
2017-02-07T02:30:30.193Z,0
2017-02-07T02:31:30.170Z,0
2017-02-07T02:32:29.772Z,0
2017-02-07T02:33:30.136Z,0
2017-02-07T02:34:30.127Z,0
2017-02-07T02:35:30.108Z,0
2017-02-07T02:36:30.092Z,0
2017-02-07T02:37:30.073Z,0
2017-02-07T02:38:30.070Z,0
2017-02-07T02:39:30.046Z,0
2017-02-07T02:40:30.027Z,0
2017-02-07T02:41:30.019Z,0
2017-02-07T02:42:30.000Z,0
2017-02-07T02:43:29.994Z,0
2017-02-07T02:44:29.976Z,0
2017-02-07T02:45:29.954Z,0
2017-02-07T02:46:29.936Z,0
2017-02-07T02:47:29.924Z,0
2017-02-07T02:48:29.907Z,0
2017-02-07T02:49:29.892Z,0
2017-02-07T02:50:29.881Z,0
2017-02-07T02:51:29.866Z,0
2017-02-07T02:52:29.854Z,0
2017-02-07T02:53:29.832Z,0
2017-02-07T02:54:29.817Z,0
2017-02-07T02:55:29.802Z,0
2017-02-07T02:56:29.788Z,0
2017-02-07T02:57:29.387Z,0
2017-02-07T02:58:29.756Z,0
2017-02-07T02:59:29.740Z,0
2017-02-07T03:00:29.728Z,0
2017-02-07T03:01:29.713Z,0
2017-02-07T03:02:29.691Z,0
2017-02-07T03:03:29.682Z,0
2017-02-07T03:04:29.664Z,0
2017-02-07T03:05:29.652Z,0
2017-02-07T03:06:29.633Z,0
2017-02-07T03:07:29.620Z,0
2017-02-07T03:08:29.607Z,0
2017-02-07T03:09:29.595Z,0
2017-02-07T03:10:29.575Z,0
2017-02-07T03:11:29.559Z,0
2017-02-07T03:12:29.544Z,0
2017-02-07T03:13:29.530Z,0
2017-02-07T03:14:29.508Z,0
2017-02-07T03:15:29.504Z,0
2017-02-07T03:16:29.092Z,0
2017-02-07T03:17:29.468Z,0
2017-02-07T03:18:29.085Z,0
2017-02-07T03:19:29.051Z,0
2017-02-07T03:20:29.422Z,0
2017-02-07T03:21:29.406Z,0
2017-02-07T03:22:29.390Z,0
2017-02-07T03:23:29.368Z,0
2017-02-07T03:24:29.355Z,0
2017-02-07T03:25:29.339Z,0
2017-02-07T03:26:29.326Z,0
2017-02-07T03:27:29.313Z,0
2017-02-07T03:28:29.296Z,0
2017-02-07T03:29:29.279Z,0
2017-02-07T03:30:28.878Z,0
2017-02-07T03:31:29.244Z,0
2017-02-07T03:32:29.233Z,0
2017-02-07T03:33:29.221Z,0
2017-02-07T03:34:29.229Z,0
2017-02-07T03:35:29.191Z,0
2017-02-07T03:36:29.172Z,0
2017-02-07T03:37:29.157Z,0
2017-02-07T03:38:29.141Z,0
2017-02-07T03:39:29.125Z,0
2017-02-07T03:40:29.115Z,0
2017-02-07T03:41:29.097Z,0
2017-02-07T03:42:29.083Z,0
2017-02-07T03:43:29.070Z,0
2017-02-07T03:44:28.666Z,0
2017-02-07T03:45:28.653Z,0
2017-02-07T03:46:29.020Z,0
2017-02-07T03:47:28.998Z,0
2017-02-07T03:48:28.991Z,0
2017-02-07T03:49:28.970Z,0
2017-02-07T03:50:28.958Z,0
2017-02-07T03:51:28.941Z,0
2017-02-07T03:52:28.541Z,0
2017-02-07T03:53:28.942Z,0
2017-02-07T03:54:28.894Z,0
2017-02-07T03:55:28.879Z,0
2017-02-07T03:56:28.860Z,0
2017-02-07T03:57:28.847Z,0
2017-02-07T03:58:28.832Z,0
2017-02-07T03:59:28.816Z,0
2017-02-07T04:00:28.805Z,0
2017-02-07T04:01:28.786Z,0
2017-02-07T04:02:28.766Z,0
2017-02-07T04:03:28.375Z,0
2017-02-07T04:04:28.738Z,0
2017-02-07T04:05:28.728Z,0
2017-02-07T04:06:28.715Z,0
2017-02-07T04:07:28.702Z,0
2017-02-07T04:08:28.297Z,0
2017-02-07T04:09:28.278Z,0
2017-02-07T04:10:28.259Z,0
2017-02-07T04:11:28.241Z,0
2017-02-07T04:12:28.231Z,0
2017-02-07T04:13:28.600Z,0
2017-02-07T04:14:28.592Z,0
2017-02-07T04:15:28.918Z,0
2017-02-07T04:16:28.556Z,0
2017-02-07T04:17:28.537Z,0
2017-02-07T04:18:28.526Z,0
2017-02-07T04:19:28.515Z,0
2017-02-07T04:20:28.496Z,0
2017-02-07T04:21:28.480Z,0
2017-02-07T04:22:28.072Z,0
2017-02-07T04:23:27.673Z,0
2017-02-07T04:24:28.434Z,0
2017-02-07T04:25:28.417Z,0
2017-02-07T04:26:28.399Z,0
2017-02-07T04:27:27.999Z,0
2017-02-07T04:28:27.981Z,0
2017-02-07T04:29:28.348Z,0
2017-02-07T04:30:28.334Z,0
2017-02-07T04:31:28.318Z,0
2017-02-07T04:32:28.302Z,0
2017-02-07T04:33:28.285Z,0
2017-02-07T04:34:28.271Z,0
2017-02-07T04:35:28.256Z,0
2017-02-07T04:36:28.241Z,0
2017-02-07T04:37:28.227Z,0
2017-02-07T04:38:28.208Z,0
2017-02-07T04:39:28.196Z,0
2017-02-07T04:40:28.177Z,0
2017-02-07T04:41:28.162Z,0
2017-02-07T04:42:28.150Z,0
2017-02-07T04:43:28.133Z,0
2017-02-07T04:44:28.119Z,0
2017-02-07T04:45:28.103Z,0
2017-02-07T04:46:28.088Z,0
2017-02-07T04:47:28.073Z,0
2017-02-07T04:48:28.059Z,0
2017-02-07T04:49:28.043Z,0
2017-02-07T04:50:28.028Z,0
2017-02-07T04:51:28.011Z,0
2017-02-07T04:52:28.005Z,0
2017-02-07T04:53:27.588Z,0
2017-02-07T04:54:27.964Z,0
2017-02-07T04:55:27.943Z,0
2017-02-07T04:56:27.928Z,0
2017-02-07T04:57:27.913Z,0
2017-02-07T04:58:27.902Z,0
2017-02-07T04:59:27.883Z,0
2017-02-07T05:00:27.866Z,0
2017-02-07T05:01:27.470Z,0
2017-02-07T05:02:27.451Z,0
2017-02-07T05:03:27.817Z,0
2017-02-07T05:04:27.805Z,0
2017-02-07T05:05:27.401Z,0
2017-02-07T05:06:27.392Z,0
2017-02-07T05:07:27.759Z,0
2017-02-07T05:08:27.742Z,28
2017-02-07T05:09:27.731Z,40
2017-02-07T05:10:27.712Z,40
2017-02-07T05:11:27.695Z,40
2017-02-07T05:12:27.680Z,40
2017-02-07T05:13:27.663Z,40
2017-02-07T05:14:27.647Z,40
2017-02-07T05:15:27.633Z,40
2017-02-07T05:16:27.617Z,40
2017-02-07T05:17:27.601Z,40
2017-02-07T05:18:27.586Z,40
2017-02-07T05:19:27.570Z,40
2017-02-07T05:20:27.174Z,40
2017-02-07T05:21:27.540Z,40
2017-02-07T05:22:27.522Z,40
2017-02-07T05:23:27.509Z,40
2017-02-07T05:24:27.493Z,40
2017-02-07T05:25:27.477Z,40
2017-02-07T05:26:27.078Z,40
2017-02-07T05:27:27.448Z,40
2017-02-07T05:28:27.430Z,40
2017-02-07T05:29:27.416Z,40
2017-02-07T05:30:27.400Z,40
2017-02-07T05:31:27.388Z,40
2017-02-07T05:32:27.369Z,40
2017-02-07T05:33:26.967Z,40
2017-02-07T05:34:26.950Z,0
2017-02-07T05:35:27.322Z,0
2017-02-07T05:36:27.306Z,0
2017-02-07T05:37:27.288Z,0
2017-02-07T05:38:26.891Z,0
2017-02-07T05:39:26.870Z,0
2017-02-07T05:40:27.244Z,0
2017-02-07T05:41:26.841Z,0
2017-02-07T05:42:27.211Z,0
2017-02-07T05:43:26.809Z,0
2017-02-07T05:44:27.180Z,0
2017-02-07T05:45:26.778Z,0
2017-02-07T05:46:27.147Z,0
2017-02-07T05:47:27.133Z,0
2017-02-07T05:48:27.118Z,0
2017-02-07T05:49:26.716Z,0
2017-02-07T05:50:27.083Z,0
2017-02-07T05:51:27.078Z,0
2017-02-07T05:52:27.057Z,0
2017-02-07T05:53:26.656Z,0
2017-02-07T05:54:27.033Z,0
2017-02-07T05:55:27.011Z,0
2017-02-07T05:56:26.992Z,0
2017-02-07T05:57:26.978Z,0
2017-02-07T05:58:26.959Z,0
2017-02-07T05:59:26.560Z,0
2017-02-07T06:00:26.550Z,0
2017-02-07T06:01:26.917Z,0
2017-02-07T06:02:26.129Z,0
2017-02-07T06:03:26.499Z,0
2017-02-07T06:04:26.483Z,0
2017-02-07T06:05:26.857Z,0
2017-02-07T06:06:26.846Z,0
2017-02-07T06:07:26.823Z,0
2017-02-07T06:08:26.421Z,0
2017-02-07T06:09:26.793Z,0
2017-02-07T06:10:26.395Z,0
2017-02-07T06:11:26.762Z,4
2017-02-07T06:12:26.744Z,0
2017-02-07T06:13:26.730Z,4
2017-02-07T06:14:26.719Z,4
2017-02-07T06:15:26.701Z,4
2017-02-07T06:16:26.299Z,8
2017-02-07T06:17:26.675Z,4
2017-02-07T06:18:26.267Z,4
2017-02-07T06:19:26.640Z,8
2017-02-07T06:20:26.625Z,8
2017-02-07T06:21:26.223Z,8
2017-02-07T06:22:26.595Z,12
2017-02-07T06:23:26.191Z,12
2017-02-07T06:24:26.565Z,12
2017-02-07T06:25:26.547Z,16
2017-02-07T06:26:26.527Z,20
2017-02-07T06:27:26.133Z,24
2017-02-07T06:28:26.501Z,24
2017-02-07T06:29:26.492Z,32
2017-02-07T06:30:26.469Z,32
2017-02-07T06:31:26.458Z,32
2017-02-07T06:32:26.440Z,40
2017-02-07T06:33:26.427Z,44
2017-02-07T06:34:26.024Z,52
2017-02-07T06:35:26.393Z,60
2017-02-07T06:36:25.991Z,64
2017-02-07T06:37:26.369Z,72
2017-02-07T06:38:26.354Z,84
2017-02-07T06:39:26.334Z,92
2017-02-07T06:40:26.317Z,100
2017-02-07T06:41:25.913Z,100
2017-02-07T06:42:25.900Z,108
2017-02-07T06:43:26.278Z,116
2017-02-07T06:44:26.257Z,128
2017-02-07T06:45:26.244Z,128
2017-02-07T06:46:26.230Z,136
2017-02-07T06:47:25.437Z,148
2017-02-07T06:48:26.201Z,164
2017-02-07T06:49:26.180Z,176
2017-02-07T06:50:26.162Z,180
2017-02-07T06:51:26.150Z,180
2017-02-07T06:52:26.138Z,188
2017-02-07T06:53:26.122Z,192
2017-02-07T06:54:25.717Z,204
2017-02-07T06:55:26.088Z,212
2017-02-07T06:56:25.688Z,224
2017-02-07T06:57:25.678Z,232
2017-02-07T06:58:25.662Z,248
2017-02-07T06:59:26.027Z,256
2017-02-07T07:00:25.629Z,272
2017-02-07T07:01:25.996Z,284
2017-02-07T07:02:25.980Z,292
2017-02-07T07:03:25.579Z,300
2017-02-07T07:04:25.576Z,296
2017-02-07T07:05:25.553Z,300
2017-02-07T07:06:25.537Z,332
2017-02-07T07:07:25.906Z,356
2017-02-07T07:08:25.891Z,368
2017-02-07T07:09:25.879Z,384
2017-02-07T07:10:25.471Z,376
2017-02-07T07:11:25.458Z,396
2017-02-07T07:12:25.443Z,400
2017-02-07T07:13:25.813Z,404
2017-02-07T07:14:25.804Z,436
2017-02-07T07:15:25.398Z,468
2017-02-07T07:16:25.773Z,496
2017-02-07T07:17:25.753Z,484
2017-02-07T07:18:25.740Z,480
2017-02-07T07:19:25.727Z,508
2017-02-07T07:20:25.706Z,484
2017-02-07T07:21:25.691Z,472
2017-02-07T07:22:25.678Z,492
2017-02-07T07:23:25.666Z,596
2017-02-07T07:24:25.653Z,668
2017-02-07T07:25:25.637Z,696
2017-02-07T07:26:25.642Z,728
2017-02-07T07:27:25.603Z,724
2017-02-07T07:28:25.591Z,724
2017-02-07T07:29:25.575Z,668
2017-02-07T07:30:25.572Z,640
2017-02-07T07:31:25.548Z,720
2017-02-07T07:32:25.531Z,772
2017-02-07T07:33:25.516Z,780
2017-02-07T07:34:25.504Z,820
2017-02-07T07:35:25.480Z,828
2017-02-07T07:36:25.466Z,800
2017-02-07T07:37:25.451Z,832
2017-02-07T07:38:25.441Z,884
2017-02-07T07:39:25.424Z,864
2017-02-07T07:40:25.409Z,840
2017-02-07T07:41:25.007Z,884
2017-02-07T07:42:25.377Z,920
2017-02-07T07:43:25.359Z,908
2017-02-07T07:44:25.345Z,912
2017-02-07T07:45:25.330Z,936
2017-02-07T07:46:25.321Z,1016
2017-02-07T07:47:25.301Z,1036
2017-02-07T07:48:25.288Z,984
2017-02-07T07:49:25.271Z,1008
2017-02-07T07:50:25.254Z,1048
2017-02-07T07:51:25.238Z,1084
2017-02-07T07:52:25.225Z,1096
2017-02-07T07:53:25.212Z,1060
2017-02-07T07:54:25.194Z,1084
2017-02-07T07:55:25.183Z,1128
2017-02-07T07:56:25.163Z,1200
2017-02-07T07:57:25.151Z,1208
2017-02-07T07:58:25.134Z,1228
2017-02-07T07:59:25.119Z,1280
2017-02-07T08:00:25.105Z,1304
2017-02-07T08:01:25.089Z,1280
2017-02-07T08:02:25.074Z,1248
2017-02-07T08:03:25.061Z,1184
2017-02-07T08:04:25.046Z,1188
2017-02-07T08:05:25.030Z,1256
2017-02-07T08:06:24.628Z,1300
2017-02-07T08:07:25.001Z,1280
2017-02-07T08:08:24.983Z,1228
2017-02-07T08:09:24.969Z,1280
2017-02-07T08:10:24.955Z,1320
2017-02-07T08:11:24.940Z,1352
2017-02-07T08:12:24.932Z,1424
2017-02-07T08:13:24.910Z,1404
2017-02-07T08:14:24.893Z,1324
2017-02-07T08:15:24.493Z,1304
2017-02-07T08:16:24.864Z,1304
2017-02-07T08:17:24.851Z,1332
2017-02-07T08:18:24.834Z,1348
2017-02-07T08:19:24.820Z,1280
2017-02-07T08:20:24.809Z,1448
2017-02-07T08:21:24.791Z,1528
2017-02-07T08:22:24.776Z,1424
2017-02-07T08:23:24.763Z,1432
2017-02-07T08:24:24.749Z,1420
2017-02-07T08:25:24.737Z,1344
2017-02-07T08:26:24.719Z,1436
2017-02-07T08:27:24.702Z,1528
2017-02-07T08:28:24.686Z,1524
2017-02-07T08:29:24.672Z,1452
2017-02-07T08:30:24.656Z,1396
2017-02-07T08:31:24.644Z,1412
2017-02-07T08:32:24.633Z,1476
2017-02-07T08:33:24.612Z,1532
2017-02-07T08:34:24.595Z,1592
2017-02-07T08:35:24.584Z,1588
2017-02-07T08:36:24.565Z,1540
2017-02-07T08:37:24.552Z,1492
2017-02-07T08:38:24.541Z,1464
2017-02-07T08:39:24.523Z,1472
2017-02-07T08:40:24.513Z,1512
2017-02-07T08:41:24.107Z,1560
2017-02-07T08:42:24.477Z,1592
2017-02-07T08:43:24.463Z,1636
2017-02-07T08:44:24.448Z,1640
2017-02-07T08:45:24.436Z,1676
2017-02-07T08:46:24.419Z,1716
2017-02-07T08:47:24.404Z,1640
2017-02-07T08:48:24.389Z,1628
2017-02-07T08:49:24.376Z,1688
2017-02-07T08:50:24.360Z,1752
2017-02-07T08:51:24.344Z,1800
2017-02-07T08:52:24.686Z,1844
2017-02-07T08:53:24.347Z,1908
2017-02-07T08:54:24.302Z,1928
2017-02-07T08:55:24.288Z,1960
2017-02-07T08:56:24.269Z,1996
2017-02-07T08:57:24.252Z,2016
2017-02-07T08:58:24.240Z,2048
2017-02-07T08:59:24.225Z,2024
2017-02-07T09:00:24.210Z,1948
2017-02-07T09:01:24.194Z,1916
2017-02-07T09:02:24.181Z,1912
2017-02-07T09:03:24.166Z,1928
2017-02-07T09:04:23.765Z,1976
2017-02-07T09:05:24.135Z,2096
2017-02-07T09:06:24.121Z,2136
2017-02-07T09:07:24.120Z,2184
2017-02-07T09:08:24.089Z,2224
2017-02-07T09:09:24.079Z,2300
2017-02-07T09:10:24.061Z,2316
2017-02-07T09:11:23.288Z,2360
2017-02-07T09:12:24.034Z,2484
2017-02-07T09:13:24.021Z,2540
2017-02-07T09:14:23.231Z,2580
2017-02-07T09:15:23.991Z,2628
2017-02-07T09:16:23.590Z,2644
2017-02-07T09:17:23.959Z,2668
2017-02-07T09:18:23.955Z,2732
2017-02-07T09:19:23.928Z,2780
2017-02-07T09:20:23.533Z,2736
2017-02-07T09:21:23.898Z,2732
2017-02-07T09:22:23.885Z,2808
2017-02-07T09:23:23.874Z,2812
2017-02-07T09:24:23.476Z,2772
2017-02-07T09:25:23.841Z,2776
2017-02-07T09:26:23.444Z,2788
2017-02-07T09:27:23.811Z,2792
2017-02-07T09:28:23.415Z,2776
2017-02-07T09:29:23.786Z,2760
2017-02-07T09:30:23.769Z,2756
2017-02-07T09:31:23.753Z,2792
2017-02-07T09:32:23.738Z,2852
2017-02-07T09:33:23.724Z,2820
2017-02-07T09:34:23.708Z,2744
2017-02-07T09:35:23.694Z,2716
2017-02-07T09:36:23.680Z,2728
2017-02-07T09:37:23.286Z,2724
2017-02-07T09:38:23.654Z,2676
2017-02-07T09:39:23.637Z,2652
2017-02-07T09:40:23.663Z,2700
2017-02-07T09:41:23.221Z,2772
2017-02-07T09:42:23.205Z,2816
2017-02-07T09:43:23.191Z,2848
2017-02-07T09:44:23.177Z,2840
2017-02-07T09:45:23.158Z,2828
2017-02-07T09:46:23.811Z,2808
2017-02-07T09:47:23.515Z,2856
2017-02-07T09:48:23.503Z,2932
2017-02-07T09:49:23.491Z,3012
2017-02-07T09:50:23.473Z,3096
2017-02-07T09:51:23.468Z,3108
2017-02-07T09:52:23.441Z,3112
2017-02-07T09:53:23.430Z,3176
2017-02-07T09:54:23.412Z,3392
2017-02-07T09:55:23.397Z,3556
2017-02-07T09:56:23.382Z,3564
2017-02-07T09:57:23.367Z,3640
2017-02-07T09:58:22.967Z,3688
2017-02-07T09:59:23.342Z,3628
2017-02-07T10:00:23.327Z,3504
2017-02-07T10:01:23.322Z,3512
2017-02-07T10:02:23.298Z,3580
2017-02-07T10:03:22.903Z,3632
2017-02-07T10:04:23.264Z,3632
2017-02-07T10:05:23.253Z,3612
2017-02-07T10:06:23.239Z,3556
2017-02-07T10:07:23.219Z,3552
2017-02-07T10:08:23.212Z,3708
2017-02-07T10:09:23.192Z,4000
2017-02-07T10:10:23.177Z,4316
2017-02-07T10:11:23.167Z,4508
2017-02-07T10:12:23.158Z,4680
2017-02-07T10:13:23.145Z,4760
2017-02-07T10:14:23.124Z,4744
2017-02-07T10:15:23.103Z,4684
2017-02-07T10:16:23.094Z,4684
2017-02-07T10:17:23.080Z,4636
2017-02-07T10:18:23.066Z,4588
2017-02-07T10:19:23.052Z,4552
2017-02-07T10:20:23.045Z,4492
2017-02-07T10:21:22.628Z,4528
2017-02-07T10:22:23.001Z,4628
2017-02-07T10:23:22.989Z,4800
2017-02-07T10:24:22.977Z,4936
2017-02-07T10:25:22.573Z,5004
2017-02-07T10:26:22.945Z,4940
2017-02-07T10:27:22.932Z,4944
2017-02-07T10:28:22.924Z,5176
2017-02-07T10:29:22.518Z,5600
2017-02-07T10:30:22.900Z,6028
2017-02-07T10:31:22.873Z,6264
2017-02-07T10:32:22.857Z,6364
2017-02-07T10:33:22.843Z,6508
2017-02-07T10:34:22.829Z,6612
2017-02-07T10:35:22.428Z,6716
2017-02-07T10:36:22.414Z,6792
2017-02-07T10:37:22.787Z,6868
2017-02-07T10:38:22.770Z,6924
2017-02-07T10:39:22.760Z,6972
2017-02-07T10:40:22.743Z,7124
2017-02-07T10:41:22.731Z,7216
2017-02-07T10:42:22.715Z,7164
2017-02-07T10:43:22.324Z,7092
2017-02-07T10:44:22.685Z,7116
2017-02-07T10:45:22.673Z,7324
2017-02-07T10:46:22.660Z,7704
2017-02-07T10:47:22.652Z,8132
2017-02-07T10:48:22.635Z,8436
2017-02-07T10:49:22.620Z,8528
2017-02-07T10:50:22.220Z,8504
2017-02-07T10:51:22.590Z,8468
2017-02-07T10:52:22.581Z,8452
2017-02-07T10:53:22.560Z,8420
2017-02-07T10:54:22.549Z,8340
2017-02-07T10:55:22.576Z,8232
2017-02-07T10:56:22.522Z,7916
2017-02-07T10:57:22.509Z,7456
2017-02-07T10:58:22.493Z,7544
2017-02-07T10:59:22.481Z,7524
2017-02-07T11:00:22.466Z,7800
2017-02-07T11:01:22.452Z,7396
2017-02-07T11:02:22.435Z,7092
2017-02-07T11:03:22.424Z,6972
2017-02-07T11:04:22.409Z,7140
2017-02-07T11:05:22.396Z,7132
2017-02-07T11:06:22.000Z,6884
2017-02-07T11:07:22.371Z,6876
2017-02-07T11:08:22.355Z,6936
2017-02-07T11:09:22.342Z,7076
2017-02-07T11:10:22.328Z,7164
2017-02-07T11:11:21.930Z,7300
2017-02-07T11:12:22.301Z,7432
2017-02-07T11:13:22.288Z,7424
2017-02-07T11:14:22.280Z,7348
2017-02-07T11:15:22.258Z,7284
2017-02-07T11:16:22.248Z,7276
2017-02-07T11:17:22.232Z,7256
2017-02-07T11:18:22.566Z,7248
2017-02-07T11:19:22.208Z,7224
2017-02-07T11:20:22.190Z,7168
2017-02-07T11:21:22.207Z,7184
2017-02-07T11:22:22.162Z,7332
2017-02-07T11:23:22.150Z,7520
2017-02-07T11:24:22.134Z,7552
2017-02-07T11:25:22.123Z,7288
2017-02-07T11:26:22.111Z,6644
2017-02-07T11:27:22.097Z,6736
2017-02-07T11:28:22.087Z,7128
2017-02-07T11:29:22.065Z,6968
2017-02-07T11:30:22.060Z,6868
2017-02-07T11:31:21.654Z,6996
2017-02-07T11:32:22.029Z,7092
2017-02-07T11:33:22.014Z,7012
2017-02-07T11:34:21.998Z,6956
2017-02-07T11:35:21.987Z,6948
2017-02-07T11:36:21.583Z,6968
2017-02-07T11:37:21.957Z,6972
2017-02-07T11:38:21.946Z,6868
2017-02-07T11:39:21.965Z,6708
2017-02-07T11:40:21.918Z,6528
2017-02-07T11:41:21.903Z,6416
2017-02-07T11:42:21.893Z,6412
2017-02-07T11:43:21.877Z,6388
2017-02-07T11:44:21.893Z,6360
2017-02-07T11:45:21.852Z,6300
2017-02-07T11:46:21.449Z,6192
2017-02-07T11:47:21.822Z,6136
2017-02-07T11:48:21.807Z,6148
2017-02-07T11:49:21.797Z,6124
2017-02-07T11:50:21.781Z,5984
2017-02-07T11:51:21.377Z,5648
2017-02-07T11:52:21.368Z,5332
2017-02-07T11:53:21.740Z,5204
2017-02-07T11:54:21.729Z,5192
2017-02-07T11:55:21.717Z,5252
2017-02-07T11:56:21.700Z,5316
2017-02-07T11:57:21.687Z,5244
2017-02-07T11:58:21.672Z,5276
2017-02-07T11:59:21.659Z,5520
2017-02-07T12:00:21.642Z,5680
2017-02-07T12:01:21.628Z,5560
2017-02-07T12:02:21.236Z,5388
2017-02-07T12:03:21.224Z,5328
2017-02-07T12:04:21.588Z,5336
2017-02-07T12:05:21.584Z,5220
2017-02-07T12:11:00.319Z,5040
2017-02-07T12:11:31.003Z,4948
2017-02-07T12:12:30.610Z,4724
2017-02-07T12:13:30.974Z,4504
2017-02-07T12:14:30.574Z,4352
2017-02-07T12:15:30.948Z,4244
2017-02-07T12:16:30.939Z,4292
2017-02-07T12:17:30.921Z,4488
2017-02-07T12:18:30.910Z,4436
2017-02-07T12:19:30.895Z,4248
2017-02-07T12:20:30.887Z,4176
2017-02-07T12:21:30.870Z,4268
2017-02-07T12:22:30.853Z,4232
2017-02-07T12:23:30.841Z,4264
2017-02-07T12:24:30.823Z,4328
2017-02-07T12:25:30.810Z,4328
2017-02-07T12:26:30.800Z,4372
2017-02-07T12:27:30.398Z,4440
2017-02-07T12:28:30.390Z,4468
2017-02-07T12:29:30.370Z,4476
2017-02-07T12:30:30.747Z,4536
2017-02-07T12:31:30.732Z,4648
2017-02-07T12:32:30.717Z,4580
2017-02-07T12:33:30.324Z,4388
2017-02-07T12:34:30.688Z,4424
2017-02-07T12:35:30.672Z,4740
2017-02-07T12:36:30.669Z,4900
2017-02-07T12:37:30.258Z,4936
2017-02-07T12:38:30.629Z,4928
2017-02-07T12:39:30.235Z,4940
2017-02-07T12:40:30.645Z,4884
2017-02-07T12:41:30.599Z,4812
2017-02-07T12:42:30.583Z,4720
2017-02-07T12:43:30.565Z,4632
2017-02-07T12:44:30.553Z,4588
2017-02-07T12:45:30.153Z,4660
2017-02-07T12:46:30.139Z,4792
2017-02-07T12:47:30.514Z,4880
2017-02-07T12:48:30.491Z,5028
2017-02-07T12:49:30.479Z,5164
2017-02-07T12:50:30.468Z,5164
2017-02-07T12:51:30.064Z,5068
2017-02-07T12:52:29.669Z,4960
2017-02-07T12:53:30.428Z,4908
2017-02-07T12:54:30.613Z,5044
2017-02-07T12:55:30.398Z,5204
2017-02-07T12:56:30.382Z,5292
2017-02-07T12:57:30.367Z,5276
2017-02-07T12:58:30.352Z,5156
2017-02-07T12:59:30.340Z,5040
2017-02-07T13:00:30.332Z,5000
2017-02-07T13:01:30.310Z,5016
2017-02-07T13:02:29.913Z,5028
2017-02-07T13:03:30.284Z,4880
2017-02-07T13:04:30.270Z,4692
2017-02-07T13:05:30.258Z,4704
2017-02-07T13:06:30.242Z,4768
2017-02-07T13:07:30.230Z,4728
2017-02-07T13:08:30.215Z,4652
2017-02-07T13:09:29.817Z,4632
2017-02-07T13:10:30.190Z,4644
2017-02-07T13:11:30.175Z,4584
2017-02-07T13:12:30.160Z,4528
2017-02-07T13:13:30.143Z,4460
2017-02-07T13:14:30.134Z,4300
2017-02-07T13:15:29.733Z,4124
2017-02-07T13:16:30.107Z,3944
2017-02-07T13:17:29.703Z,3892
2017-02-07T13:18:30.078Z,3940
2017-02-07T13:19:30.067Z,3956
2017-02-07T13:20:30.048Z,3916
2017-02-07T13:21:30.039Z,3796
2017-02-07T13:22:30.029Z,3620
2017-02-07T13:23:30.011Z,3528
2017-02-07T13:24:29.995Z,3516
2017-02-07T13:25:29.987Z,3504
2017-02-07T13:26:29.967Z,3492
2017-02-07T13:27:29.955Z,3492
2017-02-07T13:28:29.554Z,3432
2017-02-07T13:29:29.542Z,3348
2017-02-07T13:30:29.909Z,3328
2017-02-07T13:31:29.900Z,3360
2017-02-07T13:32:29.499Z,3364
2017-02-07T13:33:29.870Z,3464
2017-02-07T13:34:29.855Z,3544
2017-02-07T13:35:29.454Z,3516
2017-02-07T13:36:29.443Z,3508
2017-02-07T13:37:29.430Z,3496
2017-02-07T13:38:29.801Z,3444
2017-02-07T13:39:29.781Z,3400
2017-02-07T13:40:29.770Z,3352
2017-02-07T13:41:29.756Z,3300
2017-02-07T13:42:29.744Z,3244
2017-02-07T13:43:29.730Z,3216
2017-02-07T13:44:29.717Z,3220
2017-02-07T13:45:29.315Z,3240
2017-02-07T13:46:29.688Z,3280
2017-02-07T13:47:29.289Z,3300
2017-02-07T13:48:29.658Z,3272
2017-02-07T13:49:29.642Z,3196
2017-02-07T13:50:29.630Z,3120
2017-02-07T13:51:29.229Z,3084
2017-02-07T13:52:29.605Z,3048
2017-02-07T13:53:29.237Z,2988
2017-02-07T13:54:29.189Z,2912
2017-02-07T13:55:29.174Z,2860
2017-02-07T13:56:29.156Z,2868
2017-02-07T13:57:29.146Z,2912
2017-02-07T13:58:29.130Z,2952
2017-02-07T13:59:29.113Z,2988
2017-02-07T14:00:29.489Z,2948
2017-02-07T14:01:29.088Z,2872
2017-02-07T14:02:29.465Z,2808
2017-02-07T14:03:29.443Z,2780